Terminal Aerodrome Forecast
Issued by NWS Sioux Falls, SD

Home | Current Version | Previous Version | Graphics & Text | Print | Product List | Glossary On
Versions: 1 2 3 4 5 6 7 8 9 10 11 12 13 14 15
000
FTUS43 KFSD 251139
TAFSUX
TAF
KSUX 251139Z 2512/2612 35009KT 3SM SHRA BR OVC035
     FM251400 36010KT 4SM SHRA OVC008
     FM251800 34009KT 5SM -SHRA OVC008
     FM260500 34006KT 6SM -SHRA OVC008
     FM261000 33008KT P6SM OVC008=

USA.gov is the U.S. government's official web portal to all federal, state and local government web resources and services.